Time;durP1;ratioP1;P1;durP2;ratioP2;P2;SDS_P1;SDS_P2;PMS_P1;PMS_P2;Temp;Humidity;BMP_temperature;BMP_pressure;BME280_temperature;BME280_humidity;BME280_pressure;Samples;Min_cycle;Max_cycle;Signal;HPM_P1;HPM_P2
2022/09/13 00:00:50;;;;;;;;;;;;;;;-155.54;100.00;57697.75;4961483;28;19990;-69
2022/09/13 00:03:16;;;;;;;;;;;;;;;-155.54;100.00;57697.75;4961016;28;20008;-69
2022/09/13 00:05:41;;;;;;;;;;;;;;;-155.54;100.00;57697.75;4962943;28;20110;-68
2022/09/13 00:08:06;;;;;;;;;;;;;;;-155.54;100.00;57697.75;4962567;28;20360;-69
2022/09/13 00:10:36;;;;;;;;;;;;;;;-155.54;100.00;57697.75;4959581;28;19973;-69
2022/09/13 00:13:01;;;;;;;;;;;;;;;-155.54;100.00;57697.75;4960043;28;20038;-68
2022/09/13 00:15:27;;;;;;;;;;;;;;;-155.54;100.00;57697.75;4955762;28;20402;-69
2022/09/13 00:17:52;;;;;;;;;;;;;;;-155.54;100.00;57697.75;4964737;28;20453;-69
2022/09/13 00:20:17;;;;;;;;;;;;;;;-155.54;100.00;57697.75;4963853;28;19990;-69
2022/09/13 00:22:42;;;;;;;;;;;;;;;-155.54;100.00;57697.75;4964857;28;19974;-68
2022/09/13 00:25:08;;;;;;;;;;;;;;;-155.54;100.00;57697.75;4964377;28;20018;-68
2022/09/13 00:27:34;;;;;;;;;;;;;;;-155.54;100.00;57697.75;4964197;28;20234;-68
2022/09/13 00:29:59;;;;;;;;;;;;;;;-155.54;100.00;57697.75;4977346;28;19987;-68
2022/09/13 00:32:24;;;;;;;;;;;;;;;-155.54;100.00;57697.75;4962954;28;20615;-68
2022/09/13 00:34:49;;;;;;;;;;;;;;;-155.54;100.00;57697.75;4963006;28;20025;-69
2022/09/13 00:37:14;;;;;;;;;;;;;;;-155.54;100.00;57697.75;4962834;28;20065;-68
2022/09/13 00:39:40;;;;;;;;;;;;;;;-155.54;100.00;57697.75;4963743;28;19975;-69
2022/09/13 00:42:07;;;;;;;;;;;;;;;-155.54;100.00;57697.75;4964442;28;20151;-68
2022/09/13 00:44:45;;;;;;;;;;;;;;;-155.54;100.00;57697.75;4964503;28;20033;-69
2022/09/13 00:47:11;;;;;;;;;;;;;;;-155.54;100.00;57697.75;4964684;28;20642;-68
2022/09/13 00:49:37;;;;;;;;;;;;;;;-155.54;100.00;57697.75;4951138;28;20552;-68
2022/09/13 00:52:03;;;;;;;;;;;;;;;-155.54;100.00;57697.75;4961260;28;20057;-69
2022/09/13 00:54:29;;;;;;;;;;;;;;;-155.54;100.00;57697.75;4960656;28;20488;-68
2022/09/13 00:56:56;;;;;;;;;;;;;;;-155.54;100.00;57697.75;4960012;28;20536;-68
2022/09/13 00:59:23;;;;;;;;;;;;;;;-155.54;100.00;57697.75;4960060;28;20375;-69
2022/09/13 01:01:48;;;;;;;;;;;;;;;-155.54;100.00;57697.75;4959341;28;19993;-68
2022/09/13 01:04:14;;;;;;;;;;;;;;;-155.54;100.00;57697.75;4948352;28;20411;-68
2022/09/13 01:06:39;;;;;;;;;;;;;;;-155.54;100.00;57697.75;4953069;28;20435;-69
2022/09/13 01:09:05;;;;;;;;;;;;;;;-155.54;100.00;57697.75;4960788;28;20370;-69
2022/09/13 01:11:30;;;;;;;;;;;;;;;-155.54;100.00;57697.75;4947896;28;20362;-69
2022/09/13 01:13:56;;;;;;;;;;;;;;;-155.54;100.00;57697.75;4958328;28;20049;-69
2022/09/13 01:16:21;;;;;;;;;;;;;;;-155.54;100.00;57697.75;4960831;28;20408;-69
2022/09/13 01:18:46;;;;;;;;;;;;;;;-155.54;100.00;57697.75;4961478;28;20401;-69
2022/09/13 01:21:41;;;;;;;;;;;;;;;-155.54;100.00;57697.75;4957855;28;19986;-69
2022/09/13 01:24:06;;;;;;;;;;;;;;;-155.54;100.00;57697.75;4923029;28;20459;-68
2022/09/13 01:26:35;;;;;;;;;;;;;;;-155.54;100.00;57697.75;4961359;28;19966;-69
2022/09/13 01:29:09;;;;;;;;;;;;;;;-155.54;100.00;57697.75;4963818;28;20402;-68
2022/09/13 01:31:37;;;;;;;;;;;;;;;-155.54;100.00;57697.75;4950466;28;19990;-69
2022/09/13 01:34:21;;;;;;;;;;;;;;;-155.54;100.00;57697.75;4964584;28;20251;-69
2022/09/13 01:36:46;;;;;;;;;;;;;;;-155.54;100.00;57697.75;4963230;28;19998;-68
2022/09/13 01:39:30;;;;;;;;;;;;;;;-155.54;100.00;57697.75;4962408;28;20017;-69
2022/09/13 01:41:55;;;;;;;;;;;;;;;-155.54;100.00;57697.75;4960447;28;19994;-69
2022/09/13 01:44:39;;;;;;;;;;;;;;;-155.54;100.00;57697.75;4964091;28;20474;-68
2022/09/13 01:47:31;;;;;;;;;;;;;;;-155.54;100.00;57697.75;4963262;28;19977;-69
2022/09/13 01:49:56;;;;;;;;;;;;;;;-155.54;100.00;57697.75;4955471;28;20096;-69
2022/09/13 01:52:36;;;;;;;;;;;;;;;-155.54;100.00;57697.75;4969659;28;20112;-68
2022/09/13 01:55:04;;;;;;;;;;;;;;;-155.54;100.00;57697.75;4957554;28;19974;-69
2022/09/13 01:57:31;;;;;;;;;;;;;;;-155.54;100.00;57697.75;4961877;28;20144;-68
2022/09/13 02:00:03;;;;;;;;;;;;;;;-155.54;100.00;57697.75;4960167;28;20461;-69
2022/09/13 02:02:39;;;;;;;;;;;;;;;-155.54;100.00;57697.75;4964297;28;19970;-69
2022/09/13 02:05:13;;;;;;;;;;;;;;;-155.54;100.00;57697.75;4962598;28;20425;-68
2022/09/13 02:07:43;;;;;;;;;;;;;;;-155.54;100.00;57697.75;4961513;28;19969;-69
2022/09/13 02:10:09;;;;;;;;;;;;;;;-155.54;100.00;57697.75;4949806;28;20057;-68
2022/09/13 02:12:35;;;;;;;;;;;;;;;-155.54;100.00;57697.75;4961322;28;19998;-69
2022/09/13 02:15:06;;;;;;;;;;;;;;;-155.54;100.00;57697.75;4960904;28;19975;-68
2022/09/13 02:17:33;;;;;;;;;;;;;;;-155.54;100.00;57697.75;4946559;28;20090;-68
2022/09/13 02:19:59;;;;;;;;;;;;;;;-155.54;100.00;57697.75;4961521;28;20361;-68
2022/09/13 02:22:26;;;;;;;;;;;;;;;-155.54;100.00;57697.75;4966630;28;20446;-68
2022/09/13 02:24:56;;;;;;;;;;;;;;;-155.54;100.00;57697.75;4962787;28;20514;-68
2022/09/13 02:27:23;;;;;;;;;;;;;;;-155.54;100.00;57697.75;4964325;28;19981;-68
2022/09/13 02:29:49;;;;;;;;;;;;;;;-155.54;100.00;57697.75;4962771;28;20274;-69
2022/09/13 02:32:15;;;;;;;;;;;;;;;-155.54;100.00;57697.75;4962166;28;20459;-70
2022/09/13 02:34:42;;;;;;;;;;;;;;;-155.54;100.00;57697.75;4959938;28;19977;-70
2022/09/13 02:37:07;;;;;;;;;;;;;;;-155.54;100.00;57697.75;4961517;28;20593;-68
2022/09/13 02:39:33;;;;;;;;;;;;;;;-155.54;100.00;57697.75;4955978;28;20069;-68
2022/09/13 02:42:10;;;;;;;;;;;;;;;-155.54;100.00;57697.75;4964005;28;20447;-68
2022/09/13 02:44:36;;;;;;;;;;;;;;;-155.54;100.00;57697.75;4953378;28;20354;-69
2022/09/13 02:47:21;;;;;;;;;;;;;;;-155.54;100.00;57697.75;4953309;28;19982;-68
2022/09/13 02:50:01;;;;;;;;;;;;;;;-155.54;100.00;57697.75;4964847;28;20005;-68
2022/09/13 02:52:32;;;;;;;;;;;;;;;-155.54;100.00;57697.75;4964846;28;20489;-69
2022/09/13 02:55:01;;;;;;;;;;;;;;;-155.54;100.00;57697.75;4961882;28;19971;-69
2022/09/13 02:57:26;;;;;;;;;;;;;;;-155.54;100.00;57697.75;4961473;28;20005;-68
2022/09/13 02:59:51;;;;;;;;;;;;;;;-155.54;100.00;57697.75;4962956;28;19994;-69
2022/09/13 03:02:17;;;;;;;;;;;;;;;-155.54;100.00;57697.75;4962821;28;19971;-69
2022/09/13 03:04:42;;;;;;;;;;;;;;;-155.54;100.00;57697.75;4954964;28;20524;-69
2022/09/13 03:07:11;;;;;;;;;;;;;;;-155.54;100.00;57697.75;4958228;28;19970;-68
2022/09/13 03:09:37;;;;;;;;;;;;;;;-155.54;100.00;57697.75;4963883;28;19998;-69
2022/09/13 03:12:18;;;;;;;;;;;;;;;-155.54;100.00;57697.75;4952223;28;20003;-69
2022/09/13 03:14:59;;;;;;;;;;;;;;;-155.54;100.00;57697.75;4962292;28;20010;-68
2022/09/13 03:17:43;;;;;;;;;;;;;;;-155.54;100.00;57697.75;4952215;28;20005;-69
2022/09/13 03:20:27;;;;;;;;;;;;;;;-155.54;100.00;57697.75;4966862;28;19996;-68
2022/09/13 03:23:06;;;;;;;;;;;;;;;-155.54;100.00;57697.75;4968773;28;20279;-68
2022/09/13 03:25:35;;;;;;;;;;;;;;;-155.54;100.00;57697.75;4955663;28;19993;-68
2022/09/13 03:28:00;;;;;;;;;;;;;;;-155.54;100.00;57697.75;4969016;28;20389;-68
2022/09/13 03:30:26;;;;;;;;;;;;;;;-155.54;100.00;57697.75;4966685;28;19971;-69
2022/09/13 03:32:57;;;;;;;;;;;;;;;-155.54;100.00;57697.75;4973608;28;20226;-68
2022/09/13 03:35:41;;;;;;;;;;;;;;;-155.54;100.00;57697.75;4955068;28;19974;-69
2022/09/13 03:38:09;;;;;;;;;;;;;;;-155.54;100.00;57697.75;4970170;28;19998;-68
2022/09/13 03:40:38;;;;;;;;;;;;;;;-155.54;100.00;57697.75;4969995;28;20025;-68
2022/09/13 03:43:05;;;;;;;;;;;;;;;-155.54;100.00;57697.75;4972682;28;20028;-69
2022/09/13 03:45:32;;;;;;;;;;;;;;;-155.54;100.00;57697.75;4956313;28;20025;-68
2022/09/13 03:47:57;;;;;;;;;;;;;;;-155.54;100.00;57697.75;4967010;28;20003;-69
2022/09/13 03:50:23;;;;;;;;;;;;;;;-155.54;100.00;57697.75;4961294;28;19982;-68
2022/09/13 03:52:50;;;;;;;;;;;;;;;-155.54;100.00;57697.75;4970059;28;20679;-69
2022/09/13 03:55:17;;;;;;;;;;;;;;;-155.54;100.00;57697.75;4966220;28;19966;-68
2022/09/13 03:57:42;;;;;;;;;;;;;;;-155.54;100.00;57697.75;4966145;28;20014;-68
2022/09/13 04:00:08;;;;;;;;;;;;;;;-155.54;100.00;57697.75;4967267;28;19997;-68
2022/09/13 04:02:34;;;;;;;;;;;;;;;-155.54;100.00;57697.75;4966093;28;20377;-69
2022/09/13 04:04:59;;;;;;;;;;;;;;;-155.54;100.00;57697.75;4967307;28;20006;-68
2022/09/13 04:07:24;;;;;;;;;;;;;;;-155.54;100.00;57697.75;4968706;28;19978;-69
2022/09/13 04:09:50;;;;;;;;;;;;;;;-155.54;100.00;57697.75;4967392;28;20026;-69
2022/09/13 04:12:15;;;;;;;;;;;;;;;-155.54;100.00;57697.75;4967871;28;20620;-68
2022/09/13 04:14:42;;;;;;;;;;;;;;;-155.54;100.00;57697.75;4965555;28;19976;-69
2022/09/13 04:17:07;;;;;;;;;;;;;;;-155.54;100.00;57697.75;4966661;28;20026;-69
2022/09/13 04:19:32;;;;;;;;;;;;;;;-155.54;100.00;57697.75;4966378;28;20005;-68
2022/09/13 04:21:57;;;;;;;;;;;;;;;-155.54;100.00;57697.75;4968759;28;20073;-68
2022/09/13 04:24:23;;;;;;;;;;;;;;;-155.54;100.00;57697.75;4968303;28;19990;-68
2022/09/13 04:26:50;;;;;;;;;;;;;;;-155.54;100.00;57697.75;4967864;28;19966;-69
2022/09/13 04:29:15;;;;;;;;;;;;;;;-155.54;100.00;57697.75;4965689;28;19990;-69
2022/09/13 04:31:40;;;;;;;;;;;;;;;-155.54;100.00;57697.75;4963911;28;20311;-68
2022/09/13 04:34:05;;;;;;;;;;;;;;;-155.54;100.00;57697.75;4964001;28;20018;-70
2022/09/13 04:36:31;;;;;;;;;;;;;;;-155.54;100.00;57697.75;4963466;28;20455;-69
2022/09/13 04:38:57;;;;;;;;;;;;;;;-155.54;100.00;57697.75;4963264;28;19986;-69
2022/09/13 04:41:22;;;;;;;;;;;;;;;-155.54;100.00;57697.75;4963432;28;20529;-70
2022/09/13 04:43:48;;;;;;;;;;;;;;;-155.54;100.00;57697.75;4963698;28;20061;-68
2022/09/13 04:46:13;;;;;;;;;;;;;;;-155.54;100.00;57697.75;4964521;28;19970;-68
2022/09/13 04:48:38;;;;;;;;;;;;;;;-155.54;100.00;57697.75;4965320;28;20458;-69
2022/09/13 04:51:04;;;;;;;;;;;;;;;-155.54;100.00;57697.75;4963058;28;20013;-69
2022/09/13 04:53:29;;;;;;;;;;;;;;;-155.54;100.00;57697.75;4963936;28;20312;-68
2022/09/13 04:56:04;;;;;;;;;;;;;;;-155.54;100.00;57697.75;4963315;28;20375;-69
2022/09/13 04:58:29;;;;;;;;;;;;;;;-155.54;100.00;57697.75;4963611;28;20010;-70
2022/09/13 05:00:59;;;;;;;;;;;;;;;-155.54;100.00;57697.75;4960957;28;20006;-68
2022/09/13 05:03:25;;;;;;;;;;;;;;;-155.54;100.00;57697.75;4965678;28;20089;-70
2022/09/13 05:05:50;;;;;;;;;;;;;;;-155.54;100.00;57697.75;4963040;28;20093;-69
2022/09/13 05:08:15;;;;;;;;;;;;;;;-155.54;100.00;57697.75;4962639;28;20061;-68
2022/09/13 05:10:40;;;;;;;;;;;;;;;-155.54;100.00;57697.75;4963056;28;19990;-68
2022/09/13 05:13:05;;;;;;;;;;;;;;;-155.54;100.00;57697.75;4966192;28;20267;-68
2022/09/13 05:15:31;;;;;;;;;;;;;;;-155.54;100.00;57697.75;4964352;28;19957;-68
2022/09/13 05:17:56;;;;;;;;;;;;;;;-155.54;100.00;57697.75;4962826;28;19937;-68
2022/09/13 05:20:21;;;;;;;;;;;;;;;-155.54;100.00;57697.75;4961727;28;20021;-68
2022/09/13 05:22:46;;;;;;;;;;;;;;;-155.54;100.00;57697.75;4962539;28;20033;-68
2022/09/13 05:25:12;;;;;;;;;;;;;;;-155.54;100.00;57697.75;4962358;28;20474;-68
2022/09/13 05:27:38;;;;;;;;;;;;;;;-155.54;100.00;57697.75;4961976;28;19961;-68
2022/09/13 05:30:03;;;;;;;;;;;;;;;-155.54;100.00;57697.75;4963105;28;19991;-68
2022/09/13 05:32:29;;;;;;;;;;;;;;;-155.54;100.00;57697.75;4962502;28;20105;-68
2022/09/13 05:34:55;;;;;;;;;;;;;;;-155.54;100.00;57697.75;4961491;28;20330;-68
2022/09/13 05:37:20;;;;;;;;;;;;;;;-155.54;100.00;57697.75;4962032;28;19929;-68
2022/09/13 05:39:45;;;;;;;;;;;;;;;-155.54;100.00;57697.75;4961949;28;20017;-67
2022/09/13 05:42:10;;;;;;;;;;;;;;;-155.54;100.00;57697.75;4963821;28;19966;-68
2022/09/13 05:44:35;;;;;;;;;;;;;;;-155.54;100.00;57697.75;4960570;28;20339;-68
2022/09/13 05:47:01;;;;;;;;;;;;;;;-155.54;100.00;57697.75;4962359;28;20343;-68
2022/09/13 05:49:26;;;;;;;;;;;;;;;-155.54;100.00;57697.75;4960088;28;19965;-68
2022/09/13 05:51:52;;;;;;;;;;;;;;;-155.54;100.00;57697.75;4961142;28;19965;-69
2022/09/13 05:54:17;;;;;;;;;;;;;;;-155.54;100.00;57697.75;4962306;28;19972;-68
2022/09/13 05:56:42;;;;;;;;;;;;;;;-155.54;100.00;57697.75;4961902;28;20465;-68
2022/09/13 05:59:10;;;;;;;;;;;;;;;-155.54;100.00;57697.75;4963521;28;19930;-68
2022/09/13 06:01:35;;;;;;;;;;;;;;;-155.54;100.00;57697.75;4960745;28;20496;-68
2022/09/13 06:04:00;;;;;;;;;;;;;;;-155.54;100.00;57697.75;4959726;28;19953;-68
2022/09/13 06:06:26;;;;;;;;;;;;;;;-155.54;100.00;57697.75;4956825;28;19977;-68
2022/09/13 06:08:52;;;;;;;;;;;;;;;-155.54;100.00;57697.75;4960834;28;20081;-68
2022/09/13 06:11:17;;;;;;;;;;;;;;;-155.54;100.00;57697.75;4960372;28;19944;-67
2022/09/13 06:13:42;;;;;;;;;;;;;;;-155.54;100.00;57697.75;4963738;28;20009;-68
2022/09/13 06:16:09;;;;;;;;;;;;;;;-155.54;100.00;57697.75;4960619;28;19926;-68
2022/09/13 06:18:35;;;;;;;;;;;;;;;-155.54;100.00;57697.75;4962576;28;20434;-68
2022/09/13 06:21:06;;;;;;;;;;;;;;;-155.54;100.00;57697.75;4961393;28;20029;-69
2022/09/13 06:23:31;;;;;;;;;;;;;;;-155.54;100.00;57697.75;4961287;28;20004;-68
2022/09/13 06:26:07;;;;;;;;;;;;;;;-155.54;100.00;57697.75;4958108;28;20036;-68
2022/09/13 06:28:32;;;;;;;;;;;;;;;-155.54;100.00;57697.75;4956205;28;20013;-68
2022/09/13 06:30:58;;;;;;;;;;;;;;;-155.54;100.00;57697.75;4960529;28;19933;-68
2022/09/13 06:33:23;;;;;;;;;;;;;;;-155.54;100.00;57697.75;4954520;28;19984;-68
2022/09/13 06:35:49;;;;;;;;;;;;;;;-155.54;100.00;57697.75;4957962;28;19922;-68
2022/09/13 06:38:14;;;;;;;;;;;;;;;-155.54;100.00;57697.75;4959957;28;19996;-67
2022/09/13 06:40:39;;;;;;;;;;;;;;;-155.54;100.00;57697.75;4961464;28;20490;-68
2022/09/13 06:43:05;;;;;;;;;;;;;;;-155.54;100.00;57697.75;4958597;28;20732;-68
2022/09/13 06:45:30;;;;;;;;;;;;;;;-155.54;100.00;57697.75;4958101;28;19933;-68
2022/09/13 06:47:55;;;;;;;;;;;;;;;-155.54;100.00;57697.75;4960356;28;20342;-68
2022/09/13 06:50:20;;;;;;;;;;;;;;;-155.54;100.00;57697.75;4959102;28;19926;-68
2022/09/13 06:52:46;;;;;;;;;;;;;;;-155.54;100.00;57697.75;4962680;28;19965;-68
2022/09/13 06:55:11;;;;;;;;;;;;;;;-155.54;100.00;57697.75;4961102;28;20414;-68
2022/09/13 06:57:36;;;;;;;;;;;;;;;-155.54;100.00;57697.75;4961111;28;19983;-68
2022/09/13 07:00:01;;;;;;;;;;;;;;;-155.54;100.00;57697.75;4960911;28;19961;-68
2022/09/13 07:02:27;;;;;;;;;;;;;;;-155.54;100.00;57697.75;4963304;28;19929;-69
2022/09/13 07:04:52;;;;;;;;;;;;;;;-155.54;100.00;57697.75;4963155;28;20228;-67
2022/09/13 07:07:18;;;;;;;;;;;;;;;-155.54;100.00;57697.75;4958711;28;20000;-69
2022/09/13 07:09:43;;;;;;;;;;;;;;;-155.54;100.00;57697.75;4960146;28;19990;-68
2022/09/13 07:12:08;;;;;;;;;;;;;;;-155.54;100.00;57697.75;4959487;28;19998;-68
2022/09/13 07:14:34;;;;;;;;;;;;;;;-155.54;100.00;57697.75;4958262;28;19974;-67
2022/09/13 07:16:59;;;;;;;;;;;;;;;-155.54;100.00;57697.75;4961285;28;19925;-68
2022/09/13 07:19:28;;;;;;;;;;;;;;;-155.54;100.00;57697.75;4961891;28;19953;-68
2022/09/13 07:21:53;;;;;;;;;;;;;;;-155.54;100.00;57697.75;4957820;28;19926;-68
2022/09/13 07:24:19;;;;;;;;;;;;;;;-155.54;100.00;57697.75;4958576;28;19922;-67
2022/09/13 07:26:45;;;;;;;;;;;;;;;-155.54;100.00;57697.75;4958441;28;19926;-68
2022/09/13 07:29:11;;;;;;;;;;;;;;;-155.54;100.00;57697.75;4959597;28;19926;-69
2022/09/13 07:31:37;;;;;;;;;;;;;;;-155.54;100.00;57697.75;4959179;28;20414;-68
2022/09/13 07:34:03;;;;;;;;;;;;;;;-155.54;100.00;57697.75;4959589;28;19929;-68
2022/09/13 07:36:29;;;;;;;;;;;;;;;-155.54;100.00;57697.75;4958778;28;19949;-69
2022/09/13 07:38:55;;;;;;;;;;;;;;;-155.54;100.00;57697.75;4965099;28;20445;-68
2022/09/13 07:41:20;;;;;;;;;;;;;;;-155.54;100.00;57697.75;4959245;28;20342;-68
2022/09/13 07:43:46;;;;;;;;;;;;;;;-155.54;100.00;57697.75;4960672;28;20317;-68
2022/09/13 07:46:32;;;;;;;;;;;;;;;-155.54;100.00;57697.75;4958933;28;20222;-68
2022/09/13 07:48:57;;;;;;;;;;;;;;;-155.54;100.00;57697.75;4958211;28;19966;-68
2022/09/13 07:51:23;;;;;;;;;;;;;;;-155.54;100.00;57697.75;4962479;28;19980;-69
2022/09/13 07:53:49;;;;;;;;;;;;;;;-155.54;100.00;57697.75;4957459;28;19969;-67
2022/09/13 07:56:15;;;;;;;;;;;;;;;-155.54;100.00;57697.75;4959498;28;19968;-69
2022/09/13 07:58:41;;;;;;;;;;;;;;;-155.54;100.00;57697.75;4958434;28;19953;-69
2022/09/13 08:01:06;;;;;;;;;;;;;;;-155.54;100.00;57697.75;4954952;28;20074;-68
2022/09/13 08:03:34;;;;;;;;;;;;;;;-155.54;100.00;57697.75;4959437;28;19922;-67
2022/09/13 08:06:00;;;;;;;;;;;;;;;-155.54;100.00;57697.75;4961783;28;20097;-68
2022/09/13 08:08:26;;;;;;;;;;;;;;;-155.54;100.00;57697.75;4961448;28;19926;-68
2022/09/13 08:10:51;;;;;;;;;;;;;;;-155.54;100.00;57697.75;4965750;28;19997;-68
2022/09/13 08:13:16;;;;;;;;;;;;;;;-155.54;100.00;57697.75;4963411;28;19965;-68
2022/09/13 08:15:42;;;;;;;;;;;;;;;-155.54;100.00;57697.75;4960588;28;20016;-68
2022/09/13 08:18:07;;;;;;;;;;;;;;;-155.54;100.00;57697.75;4960586;28;19925;-68
2022/09/13 08:20:37;;;;;;;;;;;;;;;-155.54;100.00;57697.75;4962542;28;19930;-68
2022/09/13 08:26:15;;;;;;;;;;;;;;;-155.54;100.00;57697.75;4962532;28;20457;-69
2022/09/13 08:28:41;;;;;;;;;;;;;;;-155.54;100.00;57697.75;4965304;28;19957;-69
2022/09/13 08:31:10;;;;;;;;;;;;;;;-155.54;100.00;57697.75;4966116;28;20023;-69
2022/09/13 08:33:36;;;;;;;;;;;;;;;-155.54;100.00;57697.75;4963217;28;19929;-69
2022/09/13 08:36:01;;;;;;;;;;;;;;;-155.54;100.00;57697.75;4960598;28;19934;-69
2022/09/13 08:38:26;;;;;;;;;;;;;;;-155.54;100.00;57697.75;4961132;28;19926;-69
2022/09/13 08:40:56;;;;;;;;;;;;;;;-155.54;100.00;57697.75;4962342;28;20292;-70
2022/09/13 08:43:24;;;;;;;;;;;;;;;-155.54;100.00;57697.75;4961134;28;20675;-69
2022/09/13 08:46:12;;;;;;;;;;;;;;;-155.54;100.00;57697.75;4963609;28;19922;-69
2022/09/13 08:48:38;;;;;;;;;;;;;;;-155.54;100.00;57697.75;4964585;28;19933;-70
2022/09/13 08:51:08;;;;;;;;;;;;;;;-155.54;100.00;57697.75;4963282;28;19977;-69
2022/09/13 08:53:52;;;;;;;;;;;;;;;-155.54;100.00;57697.75;4952821;28;20378;-69
2022/09/13 08:56:38;;;;;;;;;;;;;;;-155.54;100.00;57697.75;4961968;28;19930;-69
2022/09/13 08:59:16;;;;;;;;;;;;;;;-155.54;100.00;57697.75;4931262;28;20413;-69
2022/09/13 09:01:41;;;;;;;;;;;;;;;-155.54;100.00;57697.75;4942971;28;20017;-70
2022/09/13 09:04:11;;;;;;;;;;;;;;;-155.54;100.00;57697.75;4939318;28;20205;-69
2022/09/13 09:06:37;;;;;;;;;;;;;;;-155.54;100.00;57697.75;4941448;28;19918;-70
2022/09/13 09:09:03;;;;;;;;;;;;;;;-155.54;100.00;57697.75;4941054;28;19991;-69
2022/09/13 09:11:28;;;;;;;;;;;;;;;-155.54;100.00;57697.75;4944553;28;20436;-70
2022/09/13 09:14:25;;;;;;;;;;;;;;;-155.54;100.00;57697.75;4942310;28;19965;-69
2022/09/13 09:16:52;;;;;;;;;;;;;;;-155.54;100.00;57697.75;4939086;28;19981;-69
2022/09/13 09:19:23;;;;;;;;;;;;;;;-155.54;100.00;57697.75;4943407;28;20044;-70
2022/09/13 09:21:48;;;;;;;;;;;;;;;-155.54;100.00;57697.75;4941300;28;19945;-70
2022/09/13 09:24:15;;;;;;;;;;;;;;;-155.54;100.00;57697.75;4942700;28;20363;-70
2022/09/13 09:26:41;;;;;;;;;;;;;;;-155.54;100.00;57697.75;4942475;28;20252;-69
2022/09/13 09:29:16;;;;;;;;;;;;;;;-155.54;100.00;57697.75;4942131;28;19975;-69
2022/09/13 09:31:42;;;;;;;;;;;;;;;-155.54;100.00;57697.75;4945694;28;19933;-69
2022/09/13 09:34:21;;;;;;;;;;;;;;;-155.54;100.00;57697.75;4929955;28;20315;-69
2022/09/13 09:37:07;;;;;;;;;;;;;;;-155.54;100.00;57697.75;4940652;28;19926;-69
2022/09/13 09:39:32;;;;;;;;;;;;;;;-155.54;100.00;57697.75;4929550;28;19945;-69
2022/09/13 09:41:58;;;;;;;;;;;;;;;-155.54;100.00;57697.75;4943872;28;20340;-69
2022/09/13 09:44:26;;;;;;;;;;;;;;;-155.54;100.00;57697.75;4938604;28;19926;-69
2022/09/13 09:46:55;;;;;;;;;;;;;;;-155.54;100.00;57697.75;4941801;28;19926;-70
2022/09/13 09:52:09;;;;;;;;;;;;;;;-155.54;100.00;57697.75;4938891;28;19953;-69
2022/09/13 09:54:37;;;;;;;;;;;;;;;-155.54;100.00;57697.75;4929127;28;20010;-70
2022/09/13 09:57:02;;;;;;;;;;;;;;;-155.54;100.00;57697.75;4942786;28;19922;-70
2022/09/13 09:59:30;;;;;;;;;;;;;;;-155.54;100.00;57697.75;4958286;28;20429;-70
2022/09/13 10:01:56;;;;;;;;;;;;;;;-155.54;100.00;57697.75;4961377;28;20501;-69
2022/09/13 10:04:22;;;;;;;;;;;;;;;-155.54;100.00;57697.75;4951050;28;20068;-70
2022/09/13 10:06:47;;;;;;;;;;;;;;;-155.54;100.00;57697.75;4960385;28;20028;-70
2022/09/13 10:09:12;;;;;;;;;;;;;;;-155.54;100.00;57697.75;4962005;28;19957;-70
2022/09/13 10:11:38;;;;;;;;;;;;;;;-155.54;100.00;57697.75;4962187;28;20449;-69
2022/09/13 10:14:04;;;;;;;;;;;;;;;-155.54;100.00;57697.75;4956685;28;20371;-70
2022/09/13 10:16:29;;;;;;;;;;;;;;;-155.54;100.00;57697.75;4958489;28;19969;-69
2022/09/13 10:24:14;;;;;;;;;;;;;;;-155.54;100.00;57697.75;4977969;28;19930;-68
2022/09/13 10:26:39;;;;;;;;;;;;;;;-155.54;100.00;57697.75;4981980;28;19929;-69
2022/09/13 10:29:08;;;;;;;;;;;;;;;-155.54;100.00;57697.75;4973547;28;19983;-68
2022/09/13 10:34:03;;;;;;;;;;;;;;;-155.54;100.00;57697.75;5046804;23;19929;-90
2022/09/13 10:36:30;;;;;;;;;;;;;;;-155.54;100.00;57697.75;5001877;28;19936;-90
2022/09/13 10:39:31;;;;;;;;;;;;;;;-155.54;100.00;57697.75;4989978;28;20020;-89
2022/09/13 10:42:03;;;;;;;;;;;;;;;-155.54;100.00;57697.75;5007104;28;20376;-91
2022/09/13 10:49:53;;;;;;;;;;;;;;;-155.54;100.00;57697.75;5017992;23;19936;-68
2022/09/13 10:52:26;;;;;;;;;;;;;;;-155.54;100.00;57697.75;5018372;28;19999;-67
2022/09/13 10:54:52;;;;;;;;;;;;;;;-155.54;100.00;57697.75;5018539;28;20416;-68
2022/09/13 10:57:29;;;;;;;;;;;;;;;-155.54;100.00;57697.75;5018116;28;20057;-68
2022/09/13 10:59:54;;;;;;;;;;;;;;;-155.54;100.00;57697.75;4991753;28;20278;-67
2022/09/13 11:02:38;;;;;;;;;;;;;;;-155.54;100.00;57697.75;5016859;28;20299;-67
2022/09/13 11:05:06;;;;;;;;;;;;;;;-155.54;100.00;57697.75;5008961;28;19925;-67
2022/09/13 11:07:34;;;;;;;;;;;;;;;-155.54;100.00;57697.75;5017029;28;19917;-67
2022/09/13 11:10:12;;;;;;;;;;;;;;;-155.54;100.00;57697.75;5014988;28;19929;-68
2022/09/13 11:12:37;;;;;;;;;;;;;;;-155.54;100.00;57697.75;5015284;28;19926;-68
2022/09/13 11:15:17;;;;;;;;;;;;;;;-155.54;100.00;57697.75;5013101;28;20292;-67
2022/09/13 11:17:54;;;;;;;;;;;;;;;-155.54;100.00;57697.75;5013176;28;20359;-68
2022/09/13 11:20:26;;;;;;;;;;;;;;;-155.54;100.00;57697.75;5013452;28;20328;-67
2022/09/13 11:23:06;;;;;;;;;;;;;;;-155.54;100.00;57697.75;5016275;28;20293;-68
2022/09/13 11:25:35;;;;;;;;;;;;;;;-155.54;100.00;57697.75;5016833;28;20005;-68
2022/09/13 11:28:09;;;;;;;;;;;;;;;-155.54;100.00;57697.75;5018550;28;20043;-69
2022/09/13 11:30:36;;;;;;;;;;;;;;;-155.54;100.00;57697.75;5000639;28;19967;-69
2022/09/13 11:33:07;;;;;;;;;;;;;;;-155.54;100.00;57697.75;5016604;28;19933;-68
2022/09/13 11:36:02;;;;;;;;;;;;;;;-155.54;100.00;57697.75;5016965;28;19921;-68
2022/09/13 11:38:30;;;;;;;;;;;;;;;-155.54;100.00;57697.75;4963070;28;19933;-70
2022/09/13 11:41:10;;;;;;;;;;;;;;;-155.54;100.00;57697.75;5019873;28;19984;-68
2022/09/13 11:43:46;;;;;;;;;;;;;;;-155.54;100.00;57697.75;5020359;28;19924;-68
2022/09/13 11:46:18;;;;;;;;;;;;;;;-155.54;100.00;57697.75;5018695;28;19920;-68
2022/09/13 11:48:47;;;;;;;;;;;;;;;-155.54;100.00;57697.75;5018128;28;20399;-68
2022/09/13 11:51:19;;;;;;;;;;;;;;;-155.54;100.00;57697.75;5018273;28;20025;-68
2022/09/13 11:53:45;;;;;;;;;;;;;;;-155.54;100.00;57697.75;5019940;28;19966;-68
2022/09/13 11:56:12;;;;;;;;;;;;;;;-155.54;100.00;57697.75;5017577;28;19972;-68
2022/09/13 11:58:47;;;;;;;;;;;;;;;-155.54;100.00;57697.75;5002910;28;19913;-68
2022/09/13 12:01:15;;;;;;;;;;;;;;;-155.54;100.00;57697.75;5001851;28;19945;-68
2022/09/13 12:03:40;;;;;;;;;;;;;;;-155.54;100.00;57697.75;5019145;28;19921;-68
2022/09/13 12:06:11;;;;;;;;;;;;;;;-155.54;100.00;57697.75;5021020;28;19917;-67
2022/09/13 12:08:39;;;;;;;;;;;;;;;-155.54;100.00;57697.75;5017461;28;19928;-67
2022/09/13 12:11:07;;;;;;;;;;;;;;;-155.54;100.00;57697.75;5002452;28;19936;-69
2022/09/13 12:13:39;;;;;;;;;;;;;;;-155.54;100.00;57697.75;5002749;28;20207;-67
2022/09/13 12:16:05;;;;;;;;;;;;;;;-155.54;100.00;57697.75;5001702;28;19921;-68
2022/09/13 12:18:39;;;;;;;;;;;;;;;-155.54;100.00;57697.75;5019953;28;19921;-68
2022/09/13 12:21:08;;;;;;;;;;;;;;;-155.54;100.00;57697.75;5019247;28;19921;-68
2022/09/13 12:23:38;;;;;;;;;;;;;;;-155.54;100.00;57697.75;5019812;28;19917;-68
2022/09/13 12:26:29;;;;;;;;;;;;;;;-155.54;100.00;57697.75;5002186;28;20016;-68
2022/09/13 12:28:56;;;;;;;;;;;;;;;-155.54;100.00;57697.75;5013016;28;19921;-69
2022/09/13 12:31:22;;;;;;;;;;;;;;;-155.54;100.00;57697.75;5001687;28;19921;-67
2022/09/13 12:33:47;;;;;;;;;;;;;;;-155.54;100.00;57697.75;4998910;28;20413;-67
2022/09/13 12:36:24;;;;;;;;;;;;;;;-155.54;100.00;57697.75;5008094;28;20044;-67
2022/09/13 12:38:59;;;;;;;;;;;;;;;-155.54;100.00;57697.75;5001116;28;19917;-67
2022/09/13 12:41:28;;;;;;;;;;;;;;;-155.54;100.00;57697.75;4998030;28;19921;-67
2022/09/13 12:44:11;;;;;;;;;;;;;;;-155.54;100.00;57697.75;5001381;28;20288;-67